Force, Pennsylvania
Current Conditions -  °F | °C
As of 7:03 AM on Monday 26 Jan 2015 (Local Time) from KFIG Reporting Station
Light Snow Light Snow  
Wind Chill:   Ceiling: 2500
Heat Index: 16°   Visibility: 2mi
Dew Point: 12°   Wind: 10mph
Humidity: 84%   Direction: 50°NE
Pressure: 29.78"   Gusts: NA
Location:  41.26°N, 78.5°W
Report Text: KFIG 261203Z AUTO 05009KT 2SM -SN BR OVC025 M09/M11 A2978 RMK AO2 P0000 T10891111
Loading
Personal Weather Stations






























Interactive Weather Map New forecast layout! Learn more

10-Day Weather Forecast

Advertisements
Track Severe Weather on mobile